createdAt,value
2019-05-16T00:01:55.259Z,0.93
2019-05-16T00:04:41.374Z,1.63
2019-05-16T00:07:28.340Z,1.53
2019-05-16T00:10:15.090Z,1.43
2019-05-16T00:13:00.931Z,2.33
2019-05-16T00:15:48.117Z,2.10
2019-05-16T00:18:34.298Z,2.37
2019-05-16T00:21:20.509Z,1.00
2019-05-16T00:24:08.233Z,1.63
2019-05-16T00:26:54.411Z,2.97
2019-05-16T00:29:40.588Z,2.10
2019-05-16T00:32:28.227Z,2.20
2019-05-16T00:35:14.609Z,1.20
2019-05-16T00:38:00.695Z,1.27
2019-05-16T00:40:48.751Z,5.17
2019-05-16T00:43:35.093Z,1.00
2019-05-16T00:46:21.321Z,2.10
2019-05-16T00:49:08.265Z,1.37
2019-05-16T00:51:54.718Z,1.37
2019-05-16T00:54:40.478Z,2.20
2019-05-16T00:57:28.231Z,2.17
2019-05-16T01:00:14.882Z,1.50
2019-05-16T01:03:01.071Z,1.03
2019-05-16T01:05:48.106Z,1.30
2019-05-16T01:08:34.814Z,3.33
2019-05-16T01:11:20.908Z,1.80
2019-05-16T01:14:08.421Z,2.70
2019-05-16T01:16:54.859Z,1.00
2019-05-16T01:19:40.888Z,1.87
2019-05-16T01:22:28.995Z,1.40
2019-05-16T01:25:15.364Z,1.47
2019-05-16T01:28:01.509Z,2.00
2019-05-16T01:30:48.928Z,1.50
2019-05-16T01:33:38.528Z,1.03
2019-05-16T01:36:34.284Z,2.13
2019-05-16T01:39:13.079Z,1.20
2019-05-16T01:41:59.385Z,2.53
2019-05-16T01:44:45.623Z,2.57
2019-05-16T01:47:31.863Z,2.73
2019-05-16T01:50:18.360Z,1.60
2019-05-16T01:53:04.663Z,2.77
2019-05-16T01:55:50.831Z,2.77
2019-05-16T01:58:38.232Z,1.50
2019-05-16T02:01:24.788Z,0.83
2019-05-16T02:04:12.206Z,3.13
2019-05-16T02:06:58.776Z,2.23
2019-05-16T02:09:44.813Z,1.53
2019-05-16T02:12:31.038Z,1.43
2019-05-16T02:15:18.252Z,1.77
2019-05-16T02:18:04.568Z,1.40
2019-05-16T02:20:50.675Z,1.10
2019-05-16T02:23:38.168Z,2.27
2019-05-16T02:26:24.506Z,2.57
2019-05-16T02:29:13.634Z,1.77
2019-05-16T02:32:02.018Z,2.40
2019-05-16T02:34:47.351Z,2.70
2019-05-16T02:37:35.046Z,2.27
2019-05-16T02:40:22.570Z,1.00
2019-05-16T02:43:12.227Z,1.30
2019-05-16T02:45:57.289Z,2.13
2019-05-16T02:48:43.316Z,2.57
2019-05-16T02:51:31.520Z,2.37
2019-05-16T02:54:21.459Z,2.17
2019-05-16T02:57:05.724Z,1.30
2019-05-16T02:59:51.920Z,1.13
2019-05-16T03:02:41.588Z,0.83
2019-05-16T03:05:26.459Z,1.97
2019-05-16T03:08:13.012Z,1.33
2019-05-16T03:11:01.012Z,1.43
2019-05-16T03:13:47.851Z,1.93
2019-05-16T03:16:36.935Z,3.90
2019-05-16T03:19:23.154Z,1.70
2019-05-16T03:22:11.457Z,2.00
2019-05-16T03:24:57.083Z,1.10
2019-05-16T03:27:43.220Z,1.63
2019-05-16T03:30:34.714Z,1.60
2019-05-16T03:33:26.227Z,1.10
2019-05-16T03:36:05.737Z,1.33
2019-05-16T03:38:52.123Z,1.40
2019-05-16T03:41:41.214Z,1.43
2019-05-16T03:44:25.959Z,2.20
2019-05-16T03:47:12.133Z,3.30
2019-05-16T03:50:00.618Z,1.67
2019-05-16T03:52:46.285Z,1.50
2019-05-16T03:55:32.925Z,2.63
2019-05-16T03:58:22.595Z,3.33
2019-05-16T04:01:10.786Z,1.50
2019-05-16T04:03:55.886Z,1.40
2019-05-16T04:06:41.996Z,2.40
2019-05-16T04:09:31.324Z,4.20
2019-05-16T04:12:16.353Z,2.03
2019-05-16T04:15:02.524Z,1.80
2019-05-16T04:17:51.047Z,1.20
2019-05-16T04:20:36.795Z,5.03
2019-05-16T04:23:22.761Z,3.50
2019-05-16T04:26:11.281Z,4.20
2019-05-16T04:28:56.995Z,4.73
2019-05-16T04:31:43.314Z,2.37
2019-05-16T04:34:31.103Z,3.17
2019-05-16T04:37:17.701Z,3.40
2019-05-16T04:40:04.390Z,1.97
2019-05-16T04:42:51.302Z,1.50
2019-05-16T04:45:41.143Z,3.40
2019-05-16T04:48:26.135Z,2.63
2019-05-16T04:51:12.298Z,2.30
2019-05-16T04:54:01.731Z,2.23
2019-05-16T04:56:46.181Z,3.47
2019-05-16T04:59:32.155Z,2.30
2019-05-16T05:02:21.093Z,2.53
2019-05-16T05:05:06.158Z,4.67
2019-05-16T05:07:52.350Z,4.10
2019-05-16T05:10:40.667Z,2.93
2019-05-16T05:13:26.716Z,2.13
2019-05-16T05:16:12.703Z,3.37
2019-05-16T05:19:00.311Z,4.10
2019-05-16T05:21:46.740Z,2.40
2019-05-16T05:24:32.643Z,3.17
2019-05-16T05:27:19.721Z,2.70
2019-05-16T05:30:06.424Z,5.53
2019-05-16T05:32:52.525Z,1.90
2019-05-16T05:35:40.793Z,2.07
2019-05-16T05:38:26.419Z,3.73
2019-05-16T05:41:12.509Z,1.50
2019-05-16T05:43:59.855Z,3.37
2019-05-16T05:46:46.444Z,1.83
2019-05-16T05:49:32.709Z,7.90
2019-05-16T05:52:20.866Z,3.67
2019-05-16T05:55:06.634Z,1.50
2019-05-16T05:57:52.869Z,3.40
2019-05-16T06:00:40.551Z,1.80
2019-05-16T06:03:27.006Z,3.67
2019-05-16T06:06:12.998Z,2.47
2019-05-16T06:09:00.654Z,3.67
2019-05-16T06:11:46.958Z,2.07
2019-05-16T06:14:33.071Z,2.93
2019-05-16T06:17:20.076Z,3.80
2019-05-16T06:20:07.007Z,1.97
2019-05-16T06:22:52.968Z,2.17
2019-05-16T06:25:40.531Z,3.10
2019-05-16T06:28:26.843Z,3.70
2019-05-16T06:31:14.347Z,5.90
2019-05-16T06:34:08.439Z,2.30
2019-05-16T06:36:50.856Z,2.57
2019-05-16T06:39:42.078Z,3.10
2019-05-16T06:42:25.273Z,4.30
2019-05-16T06:45:11.535Z,2.27
2019-05-16T06:47:57.553Z,2.63
2019-05-16T06:50:43.943Z,2.93
2019-05-16T06:53:30.058Z,2.60
2019-05-16T06:56:16.529Z,2.20
2019-05-16T06:59:02.650Z,3.63
2019-05-16T07:01:50.066Z,3.73
2019-05-16T07:04:36.579Z,2.30
2019-05-16T07:07:22.634Z,4.70
2019-05-16T07:10:09.799Z,3.77
2019-05-16T07:12:56.928Z,3.53
2019-05-16T07:15:43.068Z,2.40
2019-05-16T07:18:30.961Z,3.17
2019-05-16T07:21:19.980Z,2.00
2019-05-16T07:24:06.993Z,5.17
2019-05-16T07:26:53.320Z,3.33
2019-05-16T07:29:40.165Z,3.07
2019-05-16T07:32:27.003Z,1.73
2019-05-16T07:35:13.618Z,2.33
2019-05-16T07:38:00.569Z,4.93
2019-05-16T07:40:47.359Z,4.67
2019-05-16T07:43:33.624Z,2.00
2019-05-16T07:46:20.649Z,2.57
2019-05-16T07:49:07.505Z,4.00
2019-05-16T07:51:53.699Z,2.10
2019-05-16T07:54:40.563Z,3.37
2019-05-16T07:57:27.164Z,2.13
2019-05-16T08:00:13.199Z,2.70
2019-05-16T08:02:59.992Z,2.30
2019-05-16T08:05:46.760Z,2.13
2019-05-16T08:08:32.815Z,2.93
2019-05-16T08:11:20.518Z,5.93
2019-05-16T08:14:10.054Z,2.57
2019-05-16T08:16:55.999Z,2.73
2019-05-16T08:19:42.329Z,3.03
2019-05-16T08:22:30.740Z,2.50
2019-05-16T08:25:16.864Z,3.70
2019-05-16T08:28:02.824Z,2.47
2019-05-16T08:30:52.976Z,2.97
2019-05-16T08:33:37.154Z,2.53
2019-05-16T08:36:23.438Z,2.70
2019-05-16T08:39:11.065Z,1.97
2019-05-16T08:42:07.104Z,2.30
2019-05-16T08:44:45.619Z,2.70
2019-05-16T08:47:32.359Z,6.47
2019-05-16T08:50:21.597Z,4.23
2019-05-16T08:53:11.692Z,2.23
2019-05-16T08:55:56.579Z,2.33
2019-05-16T08:58:42.639Z,2.30
2019-05-16T09:01:34.466Z,3.77
2019-05-16T09:04:17.166Z,3.97
2019-05-16T09:07:03.751Z,2.33
2019-05-16T09:09:52.041Z,2.57
2019-05-16T09:12:38.288Z,3.33
2019-05-16T09:15:27.114Z,1.60
2019-05-16T09:18:13.705Z,2.00
2019-05-16T09:20:59.669Z,1.70
2019-05-16T09:23:46.987Z,3.03
2019-05-16T09:26:33.550Z,1.93
2019-05-16T09:29:19.758Z,2.67
2019-05-16T09:32:12.504Z,1.83
2019-05-16T09:34:57.374Z,3.27
2019-05-16T09:37:43.139Z,2.20
2019-05-16T09:40:29.303Z,2.53
2019-05-16T09:43:17.728Z,1.77
2019-05-16T09:46:04.234Z,2.10
2019-05-16T09:49:11.658Z,2.00
2019-05-16T09:51:39.879Z,3.83
2019-05-16T09:54:27.326Z,2.33
2019-05-16T09:57:14.220Z,3.67
2019-05-16T10:00:00.258Z,6.83
2019-05-16T10:02:47.544Z,2.97
2019-05-16T10:05:33.766Z,3.50
2019-05-16T10:08:19.957Z,1.90
2019-05-16T10:11:06.417Z,4.37
2019-05-16T10:13:54.054Z,1.80
2019-05-16T10:16:40.328Z,3.03
2019-05-16T10:19:27.520Z,1.77
2019-05-16T10:22:16.896Z,3.97
2019-05-16T10:25:02.730Z,4.67
2019-05-16T10:27:48.597Z,3.13
2019-05-16T10:30:34.854Z,2.33
2019-05-16T10:33:20.995Z,2.87
2019-05-16T10:36:08.501Z,2.80
2019-05-16T10:38:58.805Z,4.73
2019-05-16T10:41:43.024Z,3.93
2019-05-16T10:44:29.070Z,2.97
2019-05-16T10:47:17.232Z,2.40
2019-05-16T10:50:03.869Z,2.77
2019-05-16T10:53:13.334Z,2.07
2019-05-16T10:55:37.827Z,2.73
2019-05-16T10:58:36.494Z,3.67
2019-05-16T11:01:24.278Z,3.13
2019-05-16T11:04:00.098Z,2.50
2019-05-16T11:06:46.677Z,3.13
2019-05-16T11:09:33.148Z,2.63
2019-05-16T11:12:20.458Z,2.77
2019-05-16T11:15:11.285Z,4.53
2019-05-16T11:18:00.059Z,3.30
2019-05-16T11:20:48.955Z,1.90
2019-05-16T11:23:33.406Z,3.30
2019-05-16T11:26:19.625Z,2.30
2019-05-16T11:29:07.480Z,2.50
2019-05-16T11:31:54.166Z,3.17
2019-05-16T11:34:40.406Z,2.33
2019-05-16T11:37:27.923Z,4.33
2019-05-16T11:40:14.276Z,5.40
2019-05-16T11:43:10.606Z,3.83
2019-05-16T11:45:48.947Z,2.83
2019-05-16T11:48:37.650Z,2.77
2019-05-16T11:51:23.268Z,4.43
2019-05-16T11:54:09.605Z,3.80
2019-05-16T11:56:57.051Z,2.80
2019-05-16T11:59:43.489Z,3.17
2019-05-16T12:02:29.828Z,3.67
2019-05-16T12:05:17.233Z,3.67
2019-05-16T12:08:03.827Z,2.73
2019-05-16T12:10:51.366Z,4.70
2019-05-16T12:13:37.546Z,3.17
2019-05-16T12:16:23.913Z,2.67
2019-05-16T12:19:10.227Z,2.47
2019-05-16T12:21:57.085Z,4.53
2019-05-16T12:24:43.657Z,3.37
2019-05-16T12:27:33.300Z,4.70
2019-05-16T12:30:18.968Z,3.40
2019-05-16T12:33:07.319Z,4.13
2019-05-16T12:35:53.755Z,3.40
2019-05-16T12:38:41.410Z,3.80
2019-05-16T12:41:28.691Z,4.23
2019-05-16T12:44:16.190Z,4.20
2019-05-16T12:47:02.687Z,4.10
2019-05-16T12:49:48.721Z,4.37
2019-05-16T12:52:38.049Z,4.60
2019-05-16T12:55:23.345Z,5.20
2019-05-16T12:58:13.679Z,3.87
2019-05-16T13:00:58.239Z,4.50
2019-05-16T13:03:44.534Z,4.77
2019-05-16T13:06:32.546Z,5.90
2019-05-16T13:09:18.784Z,3.63
2019-05-16T13:12:07.001Z,5.17
2019-05-16T13:14:53.886Z,5.83
2019-05-16T13:17:39.826Z,5.87
2019-05-16T13:20:26.683Z,5.23
2019-05-16T13:23:14.932Z,4.93
2019-05-16T13:26:02.273Z,5.43
2019-05-16T13:28:48.366Z,4.20
2019-05-16T13:31:37.584Z,3.90
2019-05-16T13:34:22.825Z,5.03
2019-05-16T13:37:09.386Z,5.47
2019-05-16T13:39:57.107Z,7.13
2019-05-16T13:42:43.879Z,6.03
2019-05-16T13:45:30.367Z,5.23
2019-05-16T13:48:17.805Z,6.57
2019-05-16T13:51:14.414Z,7.37
2019-05-16T13:53:52.725Z,7.50
2019-05-16T13:56:39.069Z,5.53
2019-05-16T13:59:28.084Z,4.97
2019-05-16T14:02:14.306Z,6.23
2019-05-16T14:05:00.450Z,6.20
2019-05-16T14:07:47.961Z,6.60
2019-05-16T14:10:37.487Z,5.53
2019-05-16T14:13:27.829Z,5.00
2019-05-16T14:16:13.366Z,6.47
2019-05-16T14:18:59.409Z,5.40
2019-05-16T14:21:47.799Z,5.67
2019-05-16T14:24:33.839Z,5.20
2019-05-16T14:27:19.949Z,6.67
2019-05-16T14:30:08.164Z,4.93
2019-05-16T14:32:54.165Z,3.73
2019-05-16T14:35:40.685Z,5.30
2019-05-16T14:38:27.382Z,6.80
2019-05-16T14:41:14.097Z,4.23
2019-05-16T14:44:00.966Z,4.77
2019-05-16T14:46:47.751Z,4.57
2019-05-16T14:49:37.225Z,4.60
2019-05-16T14:52:22.526Z,4.70
2019-05-16T14:55:08.846Z,5.50
2019-05-16T14:57:56.733Z,5.43
2019-05-16T15:00:43.388Z,5.80
2019-05-16T15:03:29.580Z,6.03
2019-05-16T15:06:18.203Z,6.10
2019-05-16T15:09:07.519Z,6.43
2019-05-16T15:11:53.866Z,6.20
2019-05-16T15:14:40.067Z,8.17
2019-05-16T15:17:27.443Z,6.10
2019-05-16T15:20:14.174Z,7.50
2019-05-16T15:23:00.365Z,5.73
2019-05-16T15:25:46.477Z,5.67
2019-05-16T15:28:32.606Z,4.90
2019-05-16T15:31:18.926Z,5.67
2019-05-16T15:34:04.945Z,7.67
2019-05-16T15:36:51.147Z,10.50
2019-05-16T15:39:37.653Z,6.93
2019-05-16T15:42:23.947Z,7.07
2019-05-16T15:45:10.666Z,10.27
2019-05-16T15:47:59.797Z,9.70
2019-05-16T15:50:45.106Z,8.63
2019-05-16T15:53:31.390Z,8.83
2019-05-16T15:56:17.958Z,9.13
2019-05-16T15:59:06.913Z,10.37
2019-05-16T16:01:52.728Z,9.93
2019-05-16T16:04:39.005Z,8.60
2019-05-16T16:07:27.133Z,9.33
2019-05-16T16:10:14.307Z,12.27
2019-05-16T16:13:00.689Z,14.10
2019-05-16T16:15:51.438Z,9.57
2019-05-16T16:18:37.454Z,12.50
2019-05-16T16:21:23.386Z,13.13
2019-05-16T16:24:09.600Z,11.10
2019-05-16T16:26:56.596Z,12.53
2019-05-16T16:29:42.745Z,13.20
2019-05-16T16:32:29.030Z,13.47
2019-05-16T16:35:17.288Z,12.43
2019-05-16T16:38:03.639Z,12.00
2019-05-16T16:40:51.823Z,11.77
2019-05-16T16:43:38.193Z,13.50
2019-05-16T16:46:24.268Z,13.60
2019-05-16T16:49:10.713Z,12.53
2019-05-16T16:51:59.375Z,12.37
2019-05-16T16:54:47.629Z,10.87
2019-05-16T16:57:33.632Z,11.50
2019-05-16T17:00:21.014Z,10.97
2019-05-16T17:03:10.560Z,12.00
2019-05-16T17:05:57.110Z,11.87
2019-05-16T17:08:43.478Z,12.67
2019-05-16T17:11:29.606Z,12.43
2019-05-16T17:14:17.418Z,12.00
2019-05-16T17:17:03.811Z,12.80
2019-05-16T17:19:49.821Z,13.07
2019-05-16T17:22:37.380Z,12.47
2019-05-16T17:25:24.055Z,11.67
2019-05-16T17:28:10.551Z,12.33
2019-05-16T17:30:56.852Z,13.77
2019-05-16T17:33:43.360Z,11.63
2019-05-16T17:36:29.486Z,11.57
2019-05-16T17:39:18.061Z,10.47
2019-05-16T17:42:04.035Z,11.23
2019-05-16T17:44:50.010Z,11.67
2019-05-16T17:47:37.763Z,11.23
2019-05-16T17:50:26.202Z,11.40
2019-05-16T17:53:12.418Z,11.23
2019-05-16T17:55:58.318Z,11.17
2019-05-16T17:58:44.515Z,10.87
2019-05-16T18:01:30.831Z,10.80
2019-05-16T18:04:17.318Z,10.63
2019-05-16T18:07:03.727Z,18.13
2019-05-16T18:09:50.231Z,12.17
2019-05-16T18:12:37.288Z,10.67
2019-05-16T18:15:23.696Z,10.00
2019-05-16T18:18:10.050Z,10.40
2019-05-16T18:21:01.575Z,9.63
2019-05-16T18:23:44.534Z,10.87
2019-05-16T18:26:30.911Z,13.40
2019-05-16T18:29:17.161Z,11.10
2019-05-16T18:32:03.415Z,10.70
2019-05-16T18:34:49.523Z,12.10
2019-05-16T18:37:35.956Z,10.77
2019-05-16T18:40:22.311Z,10.93
2019-05-16T18:43:08.683Z,12.83
2019-05-16T18:45:56.725Z,11.43
2019-05-16T18:48:43.065Z,11.40
2019-05-16T18:51:29.466Z,10.60
2019-05-16T18:54:17.321Z,13.90
2019-05-16T18:57:06.816Z,12.13
2019-05-16T18:59:52.865Z,12.77
2019-05-16T19:02:39.551Z,13.73
2019-05-16T19:05:26.587Z,13.03
2019-05-16T19:08:13.431Z,14.27
2019-05-16T19:11:00.228Z,14.30
2019-05-16T19:13:47.473Z,15.93
2019-05-16T19:16:34.211Z,14.33
2019-05-16T19:19:20.635Z,16.40
2019-05-16T19:22:07.120Z,16.90
2019-05-16T19:24:53.891Z,16.77
2019-05-16T19:27:40.600Z,18.97
2019-05-16T19:30:27.425Z,18.10
2019-05-16T19:33:14.175Z,16.50
2019-05-16T19:36:00.819Z,15.93
2019-05-16T19:38:47.460Z,17.47
2019-05-16T19:41:38.655Z,16.17
2019-05-16T19:44:23.163Z,15.40
2019-05-16T19:47:10.092Z,16.23
2019-05-16T19:49:57.013Z,16.97
2019-05-16T19:52:43.361Z,16.73
2019-05-16T19:55:29.921Z,15.37
2019-05-16T19:58:16.078Z,18.70
2019-05-16T20:01:02.189Z,15.77
2019-05-16T20:03:48.145Z,16.77
2019-05-16T20:06:36.784Z,17.13
2019-05-16T20:09:22.760Z,16.27
2019-05-16T20:12:09.065Z,15.63
2019-05-16T20:15:07.642Z,15.30
2019-05-16T20:17:51.949Z,17.67
2019-05-16T20:20:31.625Z,16.20
2019-05-16T20:23:18.669Z,16.40
2019-05-16T20:26:07.590Z,16.87
2019-05-16T20:28:52.997Z,17.33
2019-05-16T20:31:39.191Z,17.40
2019-05-16T20:34:26.790Z,18.43
2019-05-16T20:37:12.896Z,17.27
2019-05-16T20:39:59.105Z,17.80
2019-05-16T20:42:47.412Z,16.70
2019-05-16T20:45:33.419Z,19.80
2019-05-16T20:48:19.736Z,17.87
2019-05-16T20:51:07.249Z,17.63
2019-05-16T20:53:53.626Z,18.53
2019-05-16T20:56:39.786Z,19.67
2019-05-16T20:59:26.652Z,22.10
2019-05-16T21:02:13.000Z,19.43
2019-05-16T21:04:59.105Z,19.77
2019-05-16T21:07:46.075Z,19.07
2019-05-16T21:10:33.546Z,22.53
2019-05-16T21:13:19.705Z,19.50
2019-05-16T21:16:07.189Z,19.73
2019-05-16T21:18:53.402Z,19.97
2019-05-16T21:21:39.580Z,21.37
2019-05-16T21:24:26.741Z,21.33
2019-05-16T21:27:12.831Z,21.13
2019-05-16T21:29:59.036Z,20.47
2019-05-16T21:32:47.145Z,23.17
2019-05-16T21:35:33.620Z,20.10
2019-05-16T21:38:19.722Z,21.90
2019-05-16T21:41:07.235Z,25.33
2019-05-16T21:43:53.716Z,23.03
2019-05-16T21:46:39.815Z,22.97
2019-05-16T21:49:27.587Z,21.57
2019-05-16T21:52:14.235Z,22.23
2019-05-16T21:55:00.361Z,23.27
2019-05-16T21:57:46.760Z,21.53
2019-05-16T22:00:37.961Z,22.93
2019-05-16T22:03:24.330Z,23.63
2019-05-16T22:06:10.352Z,22.87
2019-05-16T22:08:57.366Z,24.23
2019-05-16T22:11:43.542Z,22.30
2019-05-16T22:14:36.840Z,23.63
2019-05-16T22:17:23.207Z,23.90
2019-05-16T22:20:09.650Z,25.30
2019-05-16T22:22:58.036Z,25.43
2019-05-16T22:25:48.867Z,26.93
2019-05-16T22:28:34.537Z,27.27
2019-05-16T22:31:20.655Z,30.97
2019-05-16T22:34:07.545Z,27.80
2019-05-16T22:36:53.825Z,24.73
2019-05-16T22:39:40.255Z,27.53
2019-05-16T22:42:26.872Z,26.80
2019-05-16T22:45:17.583Z,29.00
2019-05-16T22:48:03.572Z,28.57
2019-05-16T22:50:49.943Z,28.17
2019-05-16T22:53:36.860Z,30.63
2019-05-16T22:56:23.557Z,29.17
2019-05-16T22:59:11.163Z,30.10
2019-05-16T23:01:57.894Z,29.57
2019-05-16T23:04:44.456Z,28.10
2019-05-16T23:07:30.504Z,27.27
2019-05-16T23:10:17.026Z,28.93
2019-05-16T23:13:06.482Z,28.33
2019-05-16T23:15:52.401Z,30.67
2019-05-16T23:18:38.486Z,31.27
2019-05-16T23:21:24.576Z,29.80
2019-05-16T23:24:10.897Z,30.87
2019-05-16T23:26:56.951Z,28.63
2019-05-16T23:29:43.252Z,31.77
2019-05-16T23:32:29.387Z,30.83
2019-05-16T23:35:15.546Z,31.43
2019-05-16T23:38:01.656Z,29.40
2019-05-16T23:40:47.658Z,30.47
2019-05-16T23:43:33.832Z,31.23
2019-05-16T23:46:20.152Z,35.43
2019-05-16T23:49:07.309Z,31.93
2019-05-16T23:51:53.366Z,34.30
2019-05-16T23:54:39.673Z,33.97
2019-05-16T23:57:26.643Z,31.93
